createdAt,value
2023-03-26T00:00:48.689Z,92.56
2023-03-26T00:03:17.378Z,93.23
2023-03-26T00:05:46.564Z,92.87
2023-03-26T00:08:13.277Z,92.92
2023-03-26T00:10:41.653Z,92.96
2023-03-26T00:13:09.191Z,93.05
2023-03-26T00:15:37.084Z,93.09
2023-03-26T00:18:04.141Z,93.05
2023-03-26T00:20:32.884Z,93.33
2023-03-26T00:23:01.633Z,93.29
2023-03-26T00:25:29.704Z,93.38
2023-03-26T00:27:56.337Z,93.56
2023-03-26T00:30:23.220Z,93.40
2023-03-26T00:32:53.492Z,93.52
2023-03-26T00:35:20.949Z,93.29
2023-03-26T00:37:47.920Z,93.43
2023-03-26T00:40:14.652Z,93.25
2023-03-26T00:42:42.568Z,93.19
2023-03-26T00:45:09.586Z,93.13
2023-03-26T00:47:36.576Z,93.05
2023-03-26T00:50:04.339Z,93.25
2023-03-26T00:52:31.871Z,92.91
2023-03-26T00:54:58.524Z,93.05
2023-03-26T00:57:42.722Z,93.09
2023-03-26T01:00:15.297Z,93.16
2023-03-26T01:02:45.228Z,93.29
2023-03-26T01:05:34.766Z,93.16
2023-03-26T01:08:24.128Z,93.28
2023-03-26T01:10:52.178Z,93.01
2023-03-26T01:13:23.001Z,93.19
2023-03-26T01:15:51.360Z,93.26
2023-03-26T01:18:22.034Z,93.36
2023-03-26T01:20:51.168Z,93.64
2023-03-26T01:23:24.670Z,93.36
2023-03-26T01:26:12.247Z,93.18
2023-03-26T01:28:41.392Z,93.40
2023-03-26T01:31:25.490Z,93.45
2023-03-26T01:34:03.971Z,93.49
2023-03-26T01:36:46.858Z,93.24
2023-03-26T01:39:25.345Z,93.39
2023-03-26T01:41:57.135Z,93.62
2023-03-26T01:44:31.441Z,93.63
2023-03-26T01:49:29.209Z,93.72
2023-03-26T01:51:58.089Z,93.75
2023-03-26T01:54:27.406Z,94.02
2023-03-26T01:57:17.959Z,94.01
2023-03-26T02:00:11.391Z,94.25
2023-03-26T02:02:55.022Z,94.13
2023-03-26T02:05:29.152Z,94.07
2023-03-26T02:08:21.013Z,94.45
2023-03-26T02:10:52.975Z,94.52
2023-03-26T02:13:20.182Z,94.04
2023-03-26T02:16:01.775Z,94.20
2023-03-26T02:18:36.499Z,94.08
2023-03-26T02:21:13.935Z,94.09
2023-03-26T02:23:42.548Z,94.42
2023-03-26T02:26:11.254Z,94.47
2023-03-26T02:28:38.431Z,94.22
2023-03-26T02:31:06.658Z,94.34
2023-03-26T02:33:33.298Z,94.16
2023-03-26T02:36:02.136Z,94.51
2023-03-26T02:38:30.477Z,94.35
2023-03-26T02:40:57.685Z,94.22
2023-03-26T02:43:24.371Z,94.22
2023-03-26T02:45:51.376Z,94.24
2023-03-26T02:48:18.463Z,94.42
2023-03-26T02:50:46.066Z,94.62
2023-03-26T02:53:13.712Z,94.35
2023-03-26T02:55:40.567Z,94.65
2023-03-26T02:58:08.334Z,94.73
2023-03-26T03:00:35.368Z,94.91
2023-03-26T03:03:04.061Z,94.83
2023-03-26T03:05:32.371Z,94.89
2023-03-26T03:07:59.736Z,94.88
2023-03-26T03:10:28.598Z,95.16
2023-03-26T03:12:55.345Z,95.35
2023-03-26T03:15:21.931Z,95.13
2023-03-26T03:17:48.618Z,95.32
2023-03-26T03:20:16.711Z,95.52
2023-03-26T03:22:43.682Z,95.36
2023-03-26T03:25:14.361Z,95.57
2023-03-26T03:27:42.941Z,95.62
2023-03-26T03:30:13.443Z,95.78
2023-03-26T03:32:40.252Z,95.65
2023-03-26T03:35:07.535Z,95.94
2023-03-26T03:37:34.440Z,95.66
2023-03-26T03:40:01.092Z,95.89
2023-03-26T03:42:27.779Z,95.84
2023-03-26T03:44:54.491Z,96.01
2023-03-26T03:47:23.093Z,96.19
2023-03-26T03:49:50.290Z,96.18
2023-03-26T03:52:19.246Z,96.13
2023-03-26T03:54:45.848Z,95.75
2023-03-26T03:57:12.534Z,96.07
2023-03-26T03:59:39.134Z,95.89
2023-03-26T04:02:21.366Z,96.12
2023-03-26T04:04:50.366Z,96.33
2023-03-26T04:07:17.051Z,96.36
2023-03-26T04:09:43.644Z,96.29
2023-03-26T04:12:10.548Z,96.25
2023-03-26T04:14:37.123Z,96.41
2023-03-26T04:17:05.405Z,96.43
2023-03-26T04:19:32.070Z,96.60
2023-03-26T04:22:02.809Z,96.74
2023-03-26T04:24:29.982Z,96.51
2023-03-26T04:27:01.018Z,96.83
2023-03-26T04:29:30.727Z,96.74
2023-03-26T04:31:58.930Z,96.69
2023-03-26T04:34:25.890Z,96.62
2023-03-26T04:36:54.713Z,96.70
2023-03-26T04:39:22.835Z,96.72
2023-03-26T04:41:49.408Z,96.87
2023-03-26T04:44:17.205Z,96.80
2023-03-26T04:46:45.278Z,96.61
2023-03-26T04:49:12.075Z,96.87
2023-03-26T04:51:41.909Z,96.63
2023-03-26T04:54:12.723Z,96.76
2023-03-26T04:56:47.892Z,96.67
2023-03-26T04:59:18.991Z,96.69
2023-03-26T05:01:46.683Z,96.88
2023-03-26T05:04:13.718Z,96.84
2023-03-26T05:06:41.871Z,96.54
2023-03-26T05:09:10.640Z,96.70
2023-03-26T05:11:37.261Z,96.51
2023-03-26T05:14:04.008Z,96.62
2023-03-26T05:16:31.855Z,96.59
2023-03-26T05:18:58.629Z,96.93
2023-03-26T05:21:25.442Z,96.64
2023-03-26T05:23:52.138Z,96.71
2023-03-26T05:26:19.194Z,96.73
2023-03-26T05:28:45.944Z,96.73
2023-03-26T05:31:13.938Z,96.60
2023-03-26T05:33:40.604Z,96.62
2023-03-26T05:36:13.421Z,96.31
2023-03-26T05:38:40.223Z,96.49
2023-03-26T05:41:08.940Z,96.34
2023-03-26T05:43:36.307Z,96.37
2023-03-26T05:46:03.765Z,96.44
2023-03-26T05:48:30.829Z,96.48
2023-03-26T05:50:58.527Z,96.45
2023-03-26T05:53:27.210Z,96.53
2023-03-26T05:55:58.117Z,96.75
2023-03-26T05:58:27.579Z,96.43
2023-03-26T06:01:08.522Z,96.51
2023-03-26T06:03:39.272Z,96.41
2023-03-26T06:06:08.846Z,96.37
2023-03-26T06:08:35.590Z,96.10
2023-03-26T06:11:05.594Z,96.53
2023-03-26T06:13:32.184Z,96.36
2023-03-26T06:15:58.924Z,96.26
2023-03-26T06:18:26.696Z,96.34
2023-03-26T06:20:53.810Z,96.34
2023-03-26T06:23:23.315Z,96.28
2023-03-26T06:25:49.965Z,96.41
2023-03-26T06:28:16.870Z,96.30
2023-03-26T06:30:43.625Z,96.15
2023-03-26T06:33:11.013Z,96.13
2023-03-26T06:35:37.709Z,96.29
2023-03-26T06:38:05.357Z,96.28
2023-03-26T06:40:32.773Z,96.11
2023-03-26T06:43:09.448Z,96.08
2023-03-26T06:45:38.335Z,96.03
2023-03-26T06:48:05.885Z,96.19
2023-03-26T06:50:33.064Z,95.85
2023-03-26T06:53:00.375Z,96.15
2023-03-26T06:55:28.947Z,95.80
2023-03-26T06:57:57.015Z,95.74
2023-03-26T07:00:24.361Z,95.64
2023-03-26T07:02:50.969Z,95.96
2023-03-26T07:05:17.701Z,95.80
2023-03-26T07:07:46.723Z,95.67
2023-03-26T07:10:14.441Z,95.85
2023-03-26T07:12:42.515Z,95.62
2023-03-26T07:15:10.496Z,96.06
2023-03-26T07:17:37.416Z,95.93
2023-03-26T07:20:06.513Z,95.77
2023-03-26T07:22:33.397Z,95.75
2023-03-26T07:25:00.304Z,95.78
2023-03-26T07:27:36.200Z,95.52
2023-03-26T07:30:12.160Z,95.64
2023-03-26T07:33:03.791Z,95.45
2023-03-26T07:35:41.692Z,95.49
2023-03-26T07:38:33.084Z,95.35
2023-03-26T07:41:07.078Z,95.17
2023-03-26T07:43:53.675Z,94.93
2023-03-26T07:46:27.790Z,94.97
2023-03-26T07:48:57.671Z,94.90
2023-03-26T07:51:24.943Z,94.96
2023-03-26T07:53:54.143Z,94.87
2023-03-26T07:56:29.297Z,95.35
2023-03-26T07:59:12.743Z,94.88
2023-03-26T08:02:05.350Z,94.91
2023-03-26T08:04:41.604Z,94.82
2023-03-26T08:07:16.421Z,94.61
2023-03-26T08:09:54.353Z,94.58
2023-03-26T08:13:04.172Z,94.71
2023-03-26T08:15:38.161Z,94.24
2023-03-26T08:18:27.633Z,94.14
2023-03-26T08:21:01.036Z,93.88
2023-03-26T08:23:36.396Z,93.91
2023-03-26T08:26:39.897Z,93.64
2023-03-26T08:29:15.898Z,93.88
2023-03-26T08:31:45.011Z,93.57
2023-03-26T08:34:14.598Z,93.71
2023-03-26T08:36:41.346Z,93.23
2023-03-26T08:39:09.000Z,93.24
2023-03-26T08:42:29.172Z,93.39
2023-03-26T08:45:14.836Z,93.13
2023-03-26T08:47:48.521Z,93.21
2023-03-26T08:50:57.935Z,93.52
2023-03-26T08:53:52.757Z,93.68
2023-03-26T08:56:53.728Z,93.53
2023-03-26T09:00:18.264Z,93.08
2023-03-26T09:03:12.660Z,93.03
2023-03-26T09:06:13.502Z,93.39
2023-03-26T09:09:19.140Z,92.97
2023-03-26T09:12:04.409Z,93.22
2023-03-26T09:14:54.665Z,93.33
2023-03-26T09:17:50.049Z,93.17
2023-03-26T09:20:48.422Z,93.05
2023-03-26T09:23:33.889Z,92.93
2023-03-26T09:29:51.262Z,92.95
2023-03-26T09:32:26.144Z,92.56
2023-03-26T09:35:02.355Z,92.87
2023-03-26T09:37:56.374Z,92.82
2023-03-26T09:40:38.199Z,93.15
2023-03-26T09:43:29.695Z,92.75
2023-03-26T09:46:15.029Z,92.51
2023-03-26T09:49:13.678Z,92.86
2023-03-26T09:51:50.390Z,92.56
2023-03-26T09:54:54.988Z,92.66
2023-03-26T09:57:23.679Z,92.36
2023-03-26T10:00:00.142Z,92.26
2023-03-26T10:02:46.288Z,92.39
2023-03-26T10:05:23.717Z,91.83
2023-03-26T10:08:21.413Z,91.61
2023-03-26T10:11:22.717Z,91.49
2023-03-26T10:14:18.900Z,91.32
2023-03-26T10:16:59.998Z,91.39
2023-03-26T10:19:45.689Z,91.71
2023-03-26T10:22:14.408Z,91.81
2023-03-26T10:25:01.914Z,91.55
2023-03-26T10:27:37.661Z,91.86
2023-03-26T10:30:23.689Z,91.42
2023-03-26T10:33:01.969Z,91.76
2023-03-26T10:35:53.764Z,92.31
2023-03-26T10:39:02.256Z,92.35
2023-03-26T10:41:32.643Z,92.49
2023-03-26T10:44:08.855Z,92.62
2023-03-26T10:46:50.404Z,92.17
2023-03-26T10:49:32.754Z,92.07
2023-03-26T10:52:05.010Z,92.20
2023-03-26T10:55:00.537Z,91.71
2023-03-26T10:57:38.511Z,91.83
2023-03-26T11:00:16.072Z,91.99
2023-03-26T11:02:54.490Z,91.85
2023-03-26T11:05:32.969Z,91.90
2023-03-26T11:08:07.179Z,91.59
2023-03-26T11:10:45.816Z,91.22
2023-03-26T11:13:25.476Z,90.87
2023-03-26T11:15:58.910Z,90.30
2023-03-26T11:18:59.339Z,90.04
2023-03-26T11:21:44.592Z,90.76
2023-03-26T11:24:35.131Z,90.13
2023-03-26T11:27:14.873Z,90.42
2023-03-26T11:29:51.813Z,90.98
2023-03-26T11:32:24.720Z,90.71
2023-03-26T11:35:04.163Z,90.04
2023-03-26T11:37:41.576Z,89.62
2023-03-26T11:40:16.514Z,89.68
2023-03-26T11:42:43.917Z,89.85
2023-03-26T11:45:20.915Z,89.57
2023-03-26T11:48:10.280Z,90.08
2023-03-26T11:50:44.481Z,90.09
2023-03-26T11:53:14.647Z,90.40
2023-03-26T11:55:48.021Z,90.88
2023-03-26T11:58:35.058Z,90.05
2023-03-26T12:01:05.535Z,90.12
2023-03-26T12:03:32.291Z,90.27
2023-03-26T12:05:59.854Z,90.58
2023-03-26T12:08:34.092Z,89.65
2023-03-26T12:11:06.547Z,89.63
2023-03-26T12:13:41.920Z,88.36
2023-03-26T12:16:14.045Z,87.58
2023-03-26T12:18:43.908Z,87.54
2023-03-26T12:21:14.024Z,86.48
2023-03-26T12:23:56.428Z,85.50
2023-03-26T12:26:36.921Z,86.04
2023-03-26T12:29:13.344Z,84.93
2023-03-26T12:31:57.895Z,84.59
2023-03-26T12:34:31.771Z,84.10
2023-03-26T12:37:00.990Z,83.44
2023-03-26T12:40:09.350Z,82.62
2023-03-26T12:44:46.258Z,81.90
2023-03-26T12:45:14.871Z,82.82
2023-03-26T12:48:01.349Z,83.62
2023-03-26T12:50:45.645Z,83.23
2023-03-26T12:53:26.016Z,81.71
2023-03-26T12:56:01.452Z,81.18
2023-03-26T12:58:28.563Z,81.23
2023-03-26T13:01:06.734Z,81.63
2023-03-26T13:03:41.986Z,81.32
2023-03-26T13:06:31.326Z,80.55
2023-03-26T13:09:32.936Z,79.45
2023-03-26T13:12:18.319Z,78.26
2023-03-26T13:14:52.048Z,77.63
2023-03-26T13:17:31.166Z,76.97
2023-03-26T13:20:07.270Z,76.39
2023-03-26T13:22:46.217Z,76.25
2023-03-26T13:25:26.701Z,76.10
2023-03-26T13:28:17.083Z,75.96
2023-03-26T13:31:15.271Z,75.89
2023-03-26T13:34:00.442Z,76.22
2023-03-26T13:36:51.889Z,76.93
2023-03-26T13:39:54.773Z,76.29
2023-03-26T13:42:41.474Z,74.73
2023-03-26T13:49:26.523Z,72.63
2023-03-26T13:52:00.206Z,74.60
2023-03-26T13:54:33.005Z,72.48
2023-03-26T14:00:34.256Z,72.17
2023-03-26T14:03:09.918Z,73.58
2023-03-26T14:06:24.957Z,73.08
2023-03-26T14:09:23.281Z,71.79
2023-03-26T14:11:58.107Z,72.53
2023-03-26T14:14:53.349Z,73.77
2023-03-26T14:17:28.330Z,72.95
2023-03-26T14:20:23.786Z,72.25
2023-03-26T14:23:19.618Z,71.15
2023-03-26T14:25:53.664Z,71.14
2023-03-26T14:28:51.465Z,71.83
2023-03-26T14:31:25.279Z,70.13
2023-03-26T14:34:00.137Z,70.05
2023-03-26T14:36:51.008Z,70.01
2023-03-26T14:42:38.698Z,71.09
2023-03-26T14:45:21.966Z,69.81
2023-03-26T14:51:37.342Z,70.96
2023-03-26T14:54:12.209Z,69.62
2023-03-26T14:56:43.556Z,70.03
2023-03-26T14:59:11.253Z,70.05
2023-03-26T15:01:58.644Z,70.32
2023-03-26T15:04:43.671Z,70.18
2023-03-26T15:07:30.227Z,69.88
2023-03-26T15:10:14.267Z,70.08
2023-03-26T15:13:04.320Z,69.24
2023-03-26T15:15:37.548Z,69.47
2023-03-26T15:18:25.449Z,70.51
2023-03-26T15:21:01.870Z,68.53
2023-03-26T15:23:52.065Z,68.02
2023-03-26T15:26:47.417Z,67.29
2023-03-26T15:29:25.369Z,67.43
2023-03-26T15:32:11.950Z,66.75
2023-03-26T15:34:55.403Z,66.02
2023-03-26T15:37:43.641Z,65.77
2023-03-26T15:40:47.466Z,65.72
2023-03-26T15:43:16.303Z,67.20
2023-03-26T15:45:50.894Z,65.90
2023-03-26T15:48:32.342Z,65.94
2023-03-26T15:51:15.479Z,67.03
2023-03-26T15:54:00.108Z,66.72
2023-03-26T15:56:42.084Z,65.44
2023-03-26T15:59:27.031Z,65.54
2023-03-26T16:02:10.069Z,64.83
2023-03-26T16:04:50.693Z,65.30
2023-03-26T16:07:21.894Z,64.63
2023-03-26T16:10:00.797Z,64.79
2023-03-26T16:12:33.141Z,65.95
2023-03-26T16:15:32.088Z,64.75
2023-03-26T16:18:10.291Z,65.24
2023-03-26T16:20:50.964Z,64.41
2023-03-26T16:23:47.851Z,64.03
2023-03-26T16:26:22.974Z,63.11
2023-03-26T16:28:52.865Z,63.15
2023-03-26T16:31:37.713Z,63.59
2023-03-26T16:34:07.162Z,63.48
2023-03-26T16:36:35.374Z,64.03
2023-03-26T16:39:10.763Z,63.20
2023-03-26T16:41:50.025Z,62.72
2023-03-26T16:44:26.326Z,61.63
2023-03-26T16:46:53.979Z,62.06
2023-03-26T16:49:28.354Z,61.99
2023-03-26T16:52:03.604Z,62.30
2023-03-26T16:54:43.513Z,61.55
2023-03-26T16:57:37.020Z,60.97
2023-03-26T17:00:33.166Z,61.85
2023-03-26T17:03:29.342Z,62.29
2023-03-26T17:05:57.595Z,61.76
2023-03-26T17:08:36.556Z,61.82
2023-03-26T17:11:42.554Z,61.54
2023-03-26T17:14:26.347Z,60.42
2023-03-26T17:17:30.665Z,60.86
2023-03-26T17:20:09.461Z,60.38
2023-03-26T17:23:00.684Z,60.54
2023-03-26T17:25:52.030Z,59.15
2023-03-26T17:31:12.095Z,60.74
2023-03-26T17:33:39.594Z,60.75
2023-03-26T17:36:12.620Z,61.15
2023-03-26T17:38:39.337Z,61.55
2023-03-26T17:41:08.316Z,62.59
2023-03-26T17:43:37.022Z,63.16
2023-03-26T17:46:13.212Z,62.30
2023-03-26T17:48:47.079Z,61.77
2023-03-26T17:54:32.954Z,61.10
2023-03-26T17:57:06.361Z,60.17
2023-03-26T17:59:34.117Z,60.66
2023-03-26T18:02:06.619Z,59.99
2023-03-26T18:04:36.771Z,60.96
2023-03-26T18:07:09.586Z,61.50
2023-03-26T18:09:46.876Z,61.27
2023-03-26T18:12:39.322Z,61.20
2023-03-26T18:15:32.102Z,60.29
2023-03-26T18:18:18.041Z,60.12
2023-03-26T18:20:47.234Z,60.17
2023-03-26T18:23:24.021Z,59.48
2023-03-26T18:26:08.397Z,60.15
2023-03-26T18:28:41.914Z,61.02
2023-03-26T18:31:17.007Z,59.10
2023-03-26T18:33:46.680Z,60.48
2023-03-26T18:36:27.744Z,60.61
2023-03-26T18:38:58.932Z,60.98
2023-03-26T18:41:41.824Z,61.66
2023-03-26T18:44:16.015Z,61.77
2023-03-26T18:46:44.652Z,62.37
2023-03-26T18:49:14.707Z,61.95
2023-03-26T18:51:56.184Z,62.66
2023-03-26T18:54:25.467Z,62.91
2023-03-26T18:56:52.882Z,63.12
2023-03-26T18:59:28.412Z,63.43
2023-03-26T19:01:57.780Z,62.75
2023-03-26T19:04:26.746Z,63.63
2023-03-26T19:06:54.898Z,63.91
2023-03-26T19:09:31.538Z,64.45
2023-03-26T19:12:07.144Z,64.12
2023-03-26T19:14:37.124Z,64.67
2023-03-26T19:17:07.064Z,64.56
2023-03-26T19:19:37.398Z,64.75
2023-03-26T19:22:06.490Z,64.69
2023-03-26T19:24:34.137Z,65.05
2023-03-26T19:27:03.291Z,65.68
2023-03-26T19:29:34.580Z,65.46
2023-03-26T19:32:20.141Z,64.74
2023-03-26T19:34:48.419Z,64.58
2023-03-26T19:37:25.264Z,64.61
2023-03-26T19:39:54.269Z,65.33
2023-03-26T19:42:27.180Z,65.46
2023-03-26T19:45:17.994Z,65.38
2023-03-26T19:47:48.560Z,65.54
2023-03-26T19:50:23.373Z,65.82
2023-03-26T19:53:15.370Z,67.53
2023-03-26T19:55:54.685Z,67.09
2023-03-26T19:58:21.511Z,66.31
2023-03-26T20:00:49.286Z,66.58
2023-03-26T20:03:23.043Z,66.76
2023-03-26T20:05:49.706Z,66.79
2023-03-26T20:08:27.328Z,65.76
2023-03-26T20:11:06.972Z,65.66
2023-03-26T20:13:33.676Z,65.91
2023-03-26T20:16:07.634Z,66.03
2023-03-26T20:18:34.965Z,66.59
2023-03-26T20:21:02.155Z,65.36
2023-03-26T20:23:29.989Z,65.89
2023-03-26T20:25:57.114Z,65.86
2023-03-26T20:28:24.507Z,65.72
2023-03-26T20:30:55.267Z,65.40
2023-03-26T20:33:26.707Z,65.71
2023-03-26T20:35:55.477Z,66.20
2023-03-26T20:38:36.565Z,66.51
2023-03-26T20:41:04.240Z,66.18
2023-03-26T20:43:30.932Z,66.32
2023-03-26T20:45:58.581Z,65.74
2023-03-26T20:48:26.630Z,65.50
2023-03-26T20:50:54.067Z,65.50
2023-03-26T20:53:22.166Z,65.38
2023-03-26T20:55:51.073Z,66.15
2023-03-26T20:58:32.056Z,65.90
2023-03-26T21:01:01.612Z,65.79
2023-03-26T21:03:32.019Z,65.60
2023-03-26T21:06:01.650Z,66.02
2023-03-26T21:08:34.866Z,66.24
2023-03-26T21:11:02.833Z,66.32
2023-03-26T21:13:39.129Z,66.09
2023-03-26T21:16:06.650Z,66.28
2023-03-26T21:18:33.909Z,66.20
2023-03-26T21:21:22.476Z,67.16
2023-03-26T21:23:59.430Z,66.43
2023-03-26T21:26:35.673Z,66.83
2023-03-26T21:29:08.752Z,67.34
2023-03-26T21:31:37.783Z,67.19
2023-03-26T21:34:05.517Z,67.70
2023-03-26T21:36:32.614Z,67.87
2023-03-26T21:38:59.710Z,68.46
2023-03-26T21:41:41.379Z,68.55
2023-03-26T21:44:08.587Z,68.46
2023-03-26T21:46:35.896Z,68.61
2023-03-26T21:49:02.862Z,68.50
2023-03-26T21:51:29.989Z,68.27
2023-03-26T21:53:56.867Z,69.37
2023-03-26T21:56:45.574Z,70.23
2023-03-26T21:59:20.003Z,70.46
2023-03-26T22:01:58.759Z,70.63
2023-03-26T22:04:31.064Z,70.01
2023-03-26T22:07:23.540Z,71.00
2023-03-26T22:09:50.462Z,69.92
2023-03-26T22:12:17.764Z,69.62
2023-03-26T22:14:44.892Z,70.03
2023-03-26T22:17:11.627Z,69.77
2023-03-26T22:19:38.494Z,69.14
2023-03-26T22:22:05.307Z,69.35
2023-03-26T22:24:32.131Z,68.83
2023-03-26T22:26:58.717Z,69.49
2023-03-26T22:29:25.372Z,70.23
2023-03-26T22:31:53.144Z,70.42
2023-03-26T22:34:19.936Z,70.36
2023-03-26T22:36:46.802Z,71.22
2023-03-26T22:39:13.689Z,71.28
2023-03-26T22:41:40.503Z,70.67
2023-03-26T22:44:19.262Z,71.09
2023-03-26T22:46:49.449Z,71.19
2023-03-26T22:49:16.717Z,71.33
2023-03-26T22:51:43.737Z,71.88
2023-03-26T22:54:10.428Z,71.92
2023-03-26T22:56:37.249Z,72.47
2023-03-26T22:59:04.083Z,72.61
2023-03-26T23:01:31.194Z,72.69
2023-03-26T23:03:58.070Z,73.18
2023-03-26T23:06:25.137Z,73.80
2023-03-26T23:08:51.823Z,74.10
2023-03-26T23:11:21.966Z,74.42
2023-03-26T23:13:49.488Z,74.92
2023-03-26T23:16:18.555Z,75.81
2023-03-26T23:18:45.189Z,75.42
2023-03-26T23:21:15.147Z,75.21
2023-03-26T23:23:42.505Z,74.67
2023-03-26T23:26:09.221Z,75.03
2023-03-26T23:28:36.138Z,74.58
2023-03-26T23:31:06.691Z,74.90
2023-03-26T23:33:35.829Z,74.73
2023-03-26T23:36:09.951Z,75.30
2023-03-26T23:38:43.817Z,74.69
2023-03-26T23:41:15.470Z,75.59
2023-03-26T23:43:54.163Z,75.81
2023-03-26T23:46:25.167Z,75.68
2023-03-26T23:48:52.263Z,75.48
2023-03-26T23:51:21.004Z,76.21
2023-03-26T23:53:49.619Z,77.21
2023-03-26T23:56:17.129Z,77.47
2023-03-26T23:58:43.799Z,77.14
